Time;durP1;ratioP1;P1;durP2;ratioP2;P2;SDS_P1;SDS_P2;PMS_P1;PMS_P2;Temp;Humidity;BMP_temperature;BMP_pressure;BME280_temperature;BME280_humidity;BME280_pressure;Samples;Min_cycle;Max_cycle;Signal;HPM_P1;HPM_P2
2021/05/18 00:01:33;;;;;;;7.68;6.88;;;;;;;12.82;83.31;98231.71;129957;1101;22735;-59
2021/05/18 00:04:03;;;;;;;8.38;6.93;;;;;;;12.75;83.16;98223.09;130002;1101;22534;-59
2021/05/18 00:06:32;;;;;;;7.85;7.05;;;;;;;12.71;83.15;98233.00;129976;1101;22543;-59
2021/05/18 00:11:48;;;;;;;7.73;7.03;;;;;;;12.59;83.12;98229.97;129656;1101;22644;-59
2021/05/18 00:14:22;;;;;;;7.58;6.88;;;;;;;12.53;83.27;98233.92;129982;1101;23001;-58
2021/05/18 00:16:57;;;;;;;7.33;6.63;;;;;;;12.45;83.69;98221.76;129982;1101;22509;-60
2021/05/18 00:19:27;;;;;;;6.95;6.25;;;;;;;12.40;83.75;98219.14;129951;1101;22638;-60
2021/05/18 00:21:55;;;;;;;8.15;7.35;;;;;;;12.37;83.73;98222.47;129976;1101;22593;-59
2021/05/18 00:24:23;;;;;;;7.85;7.13;;;;;;;12.29;84.16;98207.57;129974;1101;22560;-59
2021/05/18 00:26:52;;;;;;;7.20;6.50;;;;;;;12.30;84.01;98214.66;129984;1101;22657;-59
2021/05/18 00:29:21;;;;;;;8.25;7.45;;;;;;;12.27;84.53;98223.44;129925;1101;22636;-59
2021/05/18 00:31:50;;;;;;;9.23;7.78;;;;;;;12.25;84.27;98219.42;129951;1101;23420;-59
2021/05/18 00:34:18;;;;;;;8.53;7.43;;;;;;;12.22;84.64;98214.55;129955;1101;22677;-59
2021/05/18 00:36:46;;;;;;;8.18;7.38;;;;;;;12.19;84.92;98213.23;130033;1102;22565;-59
2021/05/18 00:39:17;;;;;;;7.58;6.85;;;;;;;12.18;84.94;98218.98;129644;1104;22856;-59
2021/05/18 00:41:46;;;;;;;7.65;6.93;;;;;;;12.17;85.02;98226.36;129931;1101;22575;-59
2021/05/18 00:44:14;;;;;;;8.08;7.28;;;;;;;12.15;84.73;98225.84;129925;1101;23750;-59
2021/05/18 00:46:43;;;;;;;6.20;5.60;;;;;;;12.17;85.05;98214.63;129995;1101;22670;-59
2021/05/18 00:49:12;;;;;;;7.13;6.43;;;;;;;12.15;85.09;98212.20;129656;1101;22713;-59
2021/05/18 00:51:44;;;;;;;8.93;8.03;;;;;;;12.17;84.97;98209.98;129674;1101;22555;-58
2021/05/18 00:54:20;;;;;;;6.38;5.70;;;;;;;12.18;85.16;98208.88;129980;1101;23338;-60
2021/05/18 00:59:37;;;;;;;9.35;8.40;;;;;;;12.20;85.22;98208.58;129951;1101;23495;-59
2021/05/18 01:02:06;;;;;;;9.45;8.53;;;;;;;12.24;85.42;98210.41;129710;1101;23138;-59
2021/05/18 01:04:40;;;;;;;8.65;7.85;;;;;;;12.27;85.59;98209.79;129900;1101;22610;-59
2021/05/18 01:07:09;;;;;;;9.20;8.28;;;;;;;12.31;85.41;98210.81;129958;1101;22622;-59
2021/05/18 01:09:38;;;;;;;9.58;8.45;;;;;;;12.36;85.51;98204.45;129683;1101;23555;-60
2021/05/18 01:12:07;;;;;;;9.58;8.58;;;;;;;12.39;85.63;98201.94;129977;1101;22717;-59
2021/05/18 01:14:36;;;;;;;9.43;8.03;;;;;;;12.43;85.89;98201.31;129648;1101;26824;-60
2021/05/18 01:17:04;;;;;;;8.38;7.38;;;;;;;12.45;86.13;98201.83;129730;1101;23735;-59
2021/05/18 01:19:34;;;;;;;8.33;7.53;;;;;;;12.46;86.11;98204.26;129874;1101;22588;-60
2021/05/18 01:22:03;;;;;;;9.55;8.63;;;;;;;12.47;85.90;98203.15;129668;1104;22640;-59
2021/05/18 01:24:34;;;;;;;8.78;7.88;;;;;;;12.49;86.19;98190.00;129851;1101;23456;-59
2021/05/18 01:27:05;;;;;;;7.80;7.10;;;;;;;12.50;86.05;98188.08;129973;1101;23367;-59
2021/05/18 01:29:34;;;;;;;8.95;8.08;;;;;;;12.51;85.98;98185.05;129878;1101;22617;-59
2021/05/18 01:32:07;;;;;;;8.23;7.43;;;;;;;12.51;86.07;98193.24;129912;1101;22578;-59
2021/05/18 01:34:36;;;;;;;7.15;6.48;;;;;;;12.51;85.82;98197.89;129826;1101;22569;-59
2021/05/18 01:37:23;;;;;;;8.60;7.80;;;;;;;12.50;85.80;98197.08;129978;1101;22581;-59
2021/05/18 01:40:00;;;;;;;7.98;7.18;;;;;;;12.49;85.90;98190.00;129989;1101;23000;-59
2021/05/18 01:45:17;;;;;;;7.43;6.73;;;;;;;12.46;85.47;98189.78;129965;1101;22723;-60
2021/05/18 01:47:49;;;;;;;7.50;6.73;;;;;;;12.44;85.53;98183.81;129729;1101;22618;-59
2021/05/18 01:50:24;;;;;;;;;;;;;;;12.44;85.01;98181.08;129740;1101;22568;-60
2021/05/18 01:52:52;;;;;;;9.00;8.10;;;;;;;12.41;85.36;98177.03;129907;1101;22114;-60
2021/05/18 01:57:58;;;;;;;;;;;;;;;12.38;85.16;98170.27;129910;1101;22691;-59
2021/05/18 02:00:38;;;;;;;8.33;7.53;;;;;;;12.35;84.93;98168.14;129880;1101;21282;-59
2021/05/18 02:03:13;;;;;;;8.20;7.40;;;;;;;12.33;85.02;98167.63;129935;1101;22581;-60
2021/05/18 02:05:42;;;;;;;7.18;6.58;;;;;;;12.34;85.13;98173.91;129997;1101;22561;-59
2021/05/18 02:08:31;;;;;;;6.25;5.73;;;;;;;12.30;84.98;98170.95;129667;1102;22557;-60
2021/05/18 02:11:01;;;;;;;6.90;5.95;;;;;;;12.26;84.65;98161.74;129945;1101;22563;-60
2021/05/18 02:13:30;;;;;;;6.95;6.25;;;;;;;12.23;84.25;98165.10;129663;1101;22610;-60
2021/05/18 02:16:11;;;;;;;6.78;6.18;;;;;;;12.21;84.26;98156.40;129694;1101;22589;-59
2021/05/18 02:24:48;;;;;;;7.10;6.45;;;;;;;12.16;84.74;98148.29;129732;1101;22526;-59
2021/05/18 02:27:29;;;;;;;7.15;6.28;;;;;;;12.15;84.75;98159.51;129814;1101;23353;-59
2021/05/18 02:29:58;;;;;;;5.65;5.10;;;;;;;12.15;84.70;98160.32;129975;1101;23403;-59
2021/05/18 02:32:27;;;;;;;6.35;5.75;;;;;;;12.14;84.38;98155.16;129651;1104;22557;-58
2021/05/18 02:35:07;;;;;;;5.60;5.10;;;;;;;12.12;84.47;98158.19;129716;1101;22633;-59
2021/05/18 02:37:38;;;;;;;6.98;6.28;;;;;;;12.12;84.12;98154.67;129664;1103;22568;-58
2021/05/18 02:40:14;;;;;;;7.23;6.57;;;;;;;12.13;84.39;98165.27;128060;1102;22817;-58
2021/05/18 02:42:43;;;;;;;7.50;6.33;;;;;;;12.14;84.06;98166.89;129687;1101;22703;-59
2021/05/18 02:45:40;;;;;;;7.25;6.55;;;;;;;12.14;84.18;98174.27;129814;1101;23323;-59
2021/05/18 02:50:50;;;;;;;;;;;;;;;12.10;84.68;98167.81;130061;1101;22541;-58
2021/05/18 02:53:25;;;;;;;8.50;7.70;;;;;;;12.08;84.73;98172.76;129644;1103;21279;-58
2021/05/18 02:58:31;;;;;;;10.38;8.35;;;;;;;12.08;85.27;98178.22;129923;1101;22542;-58
2021/05/18 03:00:59;;;;;;;10.50;8.68;;;;;;;12.08;85.76;98170.84;129962;1101;22743;-58
2021/05/18 03:03:28;;;;;;;9.70;8.57;;;;;;;12.08;86.09;98168.11;129947;1101;22700;-58
2021/05/18 03:05:57;;;;;;;9.98;8.98;;;;;;;12.12;86.39;98177.30;129977;1101;22597;-59
2021/05/18 03:08:25;;;;;;;10.98;9.88;;;;;;;12.16;86.70;98178.33;129750;1101;22553;-58
2021/05/18 03:10:54;;;;;;;11.95;10.75;;;;;;;12.24;87.23;98188.57;129972;1101;23618;-58
2021/05/18 03:13:23;;;;;;;11.05;9.63;;;;;;;12.31;87.12;98188.97;129984;1101;22539;-58
2021/05/18 03:15:52;;;;;;;11.13;9.87;;;;;;;12.38;86.97;98183.12;129670;1101;23427;-58
2021/05/18 03:18:21;;;;;;;14.53;10.50;;;;;;;12.42;87.20;98181.38;129997;1101;22642;-58
2021/05/18 03:20:50;;;;;;;11.33;10.13;;;;;;;12.46;87.51;98181.59;129679;1101;22706;-58
2021/05/18 03:23:19;;;;;;;12.93;10.60;;;;;;;12.48;87.34;98182.91;129973;1101;22580;-58
2021/05/18 03:25:47;;;;;;;11.40;10.20;;;;;;;12.51;87.57;98178.77;129921;1101;22606;-58
2021/05/18 03:28:16;;;;;;;12.05;9.75;;;;;;;12.56;87.27;98178.66;129725;1101;22666;-58
2021/05/18 03:36:23;;;;;;;16.95;10.55;;;;;;;12.68;87.41;98198.11;129944;1101;23634;-58
2021/05/18 03:38:55;;;;;;;10.93;9.78;;;;;;;12.70;87.74;98201.32;130001;1101;22610;-59
2021/05/18 03:41:28;;;;;;;13.33;11.13;;;;;;;12.59;87.62;98183.52;125729;1101;24238;-59
2021/05/18 03:44:10;;;;;;;12.53;10.70;;;;;;;12.73;87.89;98189.78;129964;1101;22543;-60
2021/05/18 03:54:56;;;;;;;11.80;10.23;;;;;;;12.86;87.46;98186.23;129948;1101;23675;-60
2021/05/18 04:16:55;;;;;;;;;;;;;;;13.37;87.29;98201.58;129988;1101;22569;-61
2021/05/18 04:19:48;;;;;;;12.93;7.78;;;;;;;13.38;87.40;98198.53;129958;1101;21334;-60
2021/05/18 04:41:36;;;;;;;10.48;9.35;;;;;;;13.53;86.82;98219.27;129985;1101;22581;-57
2021/05/18 05:00:13;;;;;;;10.43;9.25;;;;;;;13.81;86.86;98214.50;129855;1101;22576;-58
2021/05/18 05:08:04;;;;;;;10.50;9.43;;;;;;;14.01;87.03;98207.69;129947;1101;22652;-58
2021/05/18 05:15:41;;;;;;;10.03;8.80;;;;;;;14.16;86.92;98204.56;129653;1102;23730;-58
2021/05/18 05:18:10;;;;;;;10.05;9.03;;;;;;;14.23;86.74;98182.22;129703;1101;23456;-58
2021/05/18 05:20:39;;;;;;;9.83;8.18;;;;;;;14.27;86.70;98181.28;129944;1101;22555;-57
2021/05/18 05:23:07;;;;;;;11.93;8.90;;;;;;;14.33;86.38;98179.20;129903;1101;22599;-57
2021/05/18 05:25:36;;;;;;;9.93;8.48;;;;;;;14.39;86.34;98173.28;129972;1101;22667;-59
2021/05/18 05:28:04;;;;;;;11.63;9.05;;;;;;;14.46;86.18;98179.13;129958;1101;22615;-59
2021/05/18 05:30:33;;;;;;;12.95;9.33;;;;;;;14.54;86.28;98171.27;129913;1101;22562;-56
2021/05/18 05:33:01;;;;;;;13.65;9.48;;;;;;;14.61;86.28;98182.56;130019;1101;23546;-56
2021/05/18 05:35:30;;;;;;;10.03;9.03;;;;;;;14.69;85.92;98181.81;129637;1102;22566;-57
2021/05/18 05:37:58;;;;;;;9.57;7.93;;;;;;;14.75;85.53;98175.03;129949;1101;22633;-59
2021/05/18 05:40:47;;;;;;;10.78;9.05;;;;;;;14.81;85.27;98171.84;129934;1101;22547;-59
2021/05/18 05:43:15;;;;;;;9.48;8.50;;;;;;;14.86;84.69;98168.93;129978;1101;22721;-59
2021/05/18 05:45:43;;;;;;;8.83;7.95;;;;;;;14.92;84.65;98174.28;129933;1101;22569;-59
2021/05/18 05:48:12;;;;;;;9.80;8.53;;;;;;;14.98;84.72;98184.80;130014;1101;22525;-59
2021/05/18 05:50:40;;;;;;;10.60;9.05;;;;;;;15.04;84.33;98185.44;129947;1101;22777;-59
2021/05/18 05:53:09;;;;;;;12.85;8.60;;;;;;;15.09;84.05;98191.59;129967;1101;22558;-60
2021/05/18 05:55:38;;;;;;;9.53;8.20;;;;;;;15.13;83.39;98183.53;129949;1101;23087;-59
2021/05/18 05:58:06;;;;;;;9.65;8.65;;;;;;;15.16;83.66;98178.19;129954;1101;22628;-59
2021/05/18 06:00:35;;;;;;;13.65;8.35;;;;;;;15.19;83.10;98180.30;129903;1101;22598;-59
2021/05/18 06:03:03;;;;;;;8.75;7.85;;;;;;;15.23;82.85;98174.17;129970;1101;22560;-59
2021/05/18 06:05:32;;;;;;;11.10;9.18;;;;;;;15.25;82.66;98171.92;129668;1101;23095;-59
2021/05/18 06:08:00;;;;;;;10.10;9.05;;;;;;;15.28;82.66;98174.84;129936;1101;22552;-59
2021/05/18 06:10:36;;;;;;;11.38;9.13;;;;;;;15.32;82.85;98166.75;129689;1101;23386;-59
2021/05/18 06:48:15;;;;;;;13.15;10.48;;;;;;;15.77;81.29;98165.32;129654;1101;22574;-56
2021/05/18 06:50:58;;;;;;;13.13;10.40;;;;;;;15.81;80.85;98165.48;129848;1101;22757;-57
2021/05/18 06:53:27;;;;;;;12.23;10.65;;;;;;;15.80;80.75;98161.93;129588;1101;22603;-58
2021/05/18 06:55:57;;;;;;;13.20;11.58;;;;;;;15.83;81.20;98160.48;129929;1101;23263;-57
2021/05/18 07:01:07;;;;;;;13.68;11.35;;;;;;;15.94;81.16;98158.19;129923;1101;22567;-57
2021/05/18 07:03:45;;;;;;;16.15;10.60;;;;;;;16.00;80.85;98146.72;129773;1101;22602;-56
2021/05/18 07:08:58;;;;;;;10.68;9.58;;;;;;;16.13;80.38;98150.39;129763;1101;22606;-57
2021/05/18 07:11:27;;;;;;;13.20;9.63;;;;;;;16.19;79.97;98141.63;129904;1101;22655;-57
2021/05/18 07:13:58;;;;;;;16.43;9.60;;;;;;;16.24;79.61;98141.46;129733;1101;22672;-57
2021/05/18 07:16:28;;;;;;;10.50;8.53;;;;;;;16.31;79.69;98140.94;129917;1101;22661;-57
2021/05/18 07:18:57;;;;;;;11.60;9.15;;;;;;;16.39;79.23;98153.05;129896;1101;22714;-57
2021/05/18 07:21:26;;;;;;;9.70;8.38;;;;;;;16.44;78.67;98145.44;129980;1101;23426;-58
2021/05/18 07:23:56;;;;;;;13.20;9.30;;;;;;;16.49;78.55;98150.73;129786;1101;22742;-58
2021/05/18 07:26:25;;;;;;;10.53;8.88;;;;;;;16.51;78.14;98145.72;129719;1102;22944;-57
2021/05/18 07:28:54;;;;;;;11.40;8.30;;;;;;;16.54;78.34;98152.50;129878;1101;22630;-57
2021/05/18 07:31:22;;;;;;;9.65;8.50;;;;;;;16.58;78.44;98145.22;129946;1101;22563;-58
2021/05/18 07:33:51;;;;;;;12.50;8.40;;;;;;;16.63;78.06;98144.23;129972;1101;23366;-57
2021/05/18 07:36:19;;;;;;;7.88;6.95;;;;;;;16.65;77.25;98145.52;129894;1101;22580;-57
2021/05/18 07:38:50;;;;;;;7.08;6.35;;;;;;;16.66;76.54;98152.64;129928;1101;22630;-58
2021/05/18 07:41:18;;;;;;;10.05;6.38;;;;;;;16.64;75.79;98146.66;129767;1101;22556;-57
2021/05/18 07:43:47;;;;;;;7.08;5.93;;;;;;;16.63;75.72;98152.48;129855;1101;22583;-57
2021/05/18 07:46:20;;;;;;;7.48;5.40;;;;;;;16.61;76.11;98156.34;129787;1101;22637;-58
2021/05/18 08:07:38;;;;;;;11.65;7.68;;;;;;;16.46;75.79;98159.64;129883;1101;22605;-58
2021/05/18 08:12:44;;;;;;;12.57;8.37;;;;;;;16.41;77.18;98164.53;129987;1101;22599;-58
2021/05/18 08:15:34;;;;;;;13.75;9.55;;;;;;;16.38;77.13;98162.44;129998;1101;22547;-57
2021/05/18 10:24:51;;;;;;;6.00;3.70;;;;;;;17.07;76.60;98021.77;129894;1101;22724;-58
2021/05/18 10:36:02;;;;;;;8.10;3.20;;;;;;;17.08;74.95;98061.90;129935;1101;23172;-57
2021/05/18 10:38:46;;;;;;;7.53;3.25;;;;;;;17.06;75.01;98062.23;129974;1101;23834;-58
2021/05/18 10:41:18;;;;;;;4.58;2.65;;;;;;;17.05;74.88;98059.81;129944;1101;22538;-59
2021/05/18 10:43:56;;;;;;;5.05;3.03;;;;;;;17.04;74.50;98058.20;129962;1101;23512;-59
2021/05/18 10:46:29;;;;;;;3.23;2.73;;;;;;;17.01;74.55;98056.95;129931;1101;22543;-59
2021/05/18 10:49:02;;;;;;;3.68;2.85;;;;;;;17.01;74.83;98047.89;129726;1101;22558;-59
2021/05/18 10:51:53;;;;;;;3.88;2.73;;;;;;;17.02;75.11;98044.00;129975;1101;22573;-59
2021/05/18 10:54:58;;;;;;;6.67;3.00;;;;;;;17.00;75.17;98052.59;129975;1101;24963;-59
2021/05/18 10:57:31;;;;;;;8.43;2.80;;;;;;;16.99;75.07;98050.97;129565;1105;23471;-59
2021/05/18 11:00:00;;;;;;;5.23;2.70;;;;;;;16.97;75.24;98042.25;129654;1104;22577;-59
2021/05/18 11:02:31;;;;;;;4.60;2.58;;;;;;;16.95;75.32;98042.58;129591;1104;23881;-59
2021/05/18 11:05:07;;;;;;;3.80;2.95;;;;;;;16.91;75.22;98041.63;129656;1104;22774;-59
2021/05/18 11:07:41;;;;;;;9.15;2.63;;;;;;;16.92;75.71;98034.19;129615;1104;22672;-59
2021/05/18 11:10:15;;;;;;;5.50;2.83;;;;;;;16.90;75.70;98026.27;129659;1104;23512;-59
2021/05/18 11:12:51;;;;;;;5.83;3.78;;;;;;;16.91;76.04;98021.56;129630;1105;22591;-59
2021/05/18 11:15:21;;;;;;;5.15;3.10;;;;;;;16.91;76.17;98016.88;129692;1105;22638;-59
2021/05/18 11:18:48;;;;;;;6.33;3.65;;;;;;;16.90;76.38;98025.45;125847;1090;22776;-58
2021/05/18 11:21:17;;;;;;;7.58;3.68;;;;;;;16.87;76.45;98021.45;129987;1101;23695;-58
2021/05/18 11:23:45;;;;;;;14.70;4.10;;;;;;;16.85;76.73;98020.98;130021;1101;22581;-58
2021/05/18 11:26:17;;;;;;;7.15;3.78;;;;;;;16.84;76.77;98022.13;130016;1101;22530;-59
2021/05/18 11:28:46;;;;;;;11.68;4.08;;;;;;;16.84;76.92;98021.31;129907;1101;22655;-59
2021/05/18 11:31:20;;;;;;;7.40;3.73;;;;;;;16.83;77.07;98017.76;129999;1101;22538;-59
2021/05/18 11:33:57;;;;;;;8.18;3.65;;;;;;;16.84;77.39;98019.38;129998;1101;22517;-59
2021/05/18 11:36:29;;;;;;;6.75;4.05;;;;;;;16.83;77.52;98009.50;129968;1101;22609;-58
2021/05/18 11:39:07;;;;;;;5.80;3.65;;;;;;;16.81;78.00;98009.03;129977;1101;22596;-58
2021/05/18 11:41:40;;;;;;;11.48;3.93;;;;;;;16.78;77.62;98001.44;130020;1101;22712;-57
2021/05/18 11:44:10;;;;;;;9.80;3.10;;;;;;;16.71;77.70;98001.19;129993;1101;22519;-58
2021/05/18 11:46:43;;;;;;;8.63;2.88;;;;;;;16.66;77.62;97995.07;130000;1101;23176;-58
2021/05/18 11:49:12;;;;;;;4.98;2.88;;;;;;;16.61;77.78;98007.03;129657;1104;22637;-57
2021/05/18 11:51:43;;;;;;;7.25;2.80;;;;;;;16.55;77.66;98000.95;130000;1101;22741;-57
2021/05/18 11:54:29;;;;;;;3.98;2.40;;;;;;;16.53;78.03;98008.72;129920;1101;22632;-57
2021/05/18 11:56:58;;;;;;;5.75;2.78;;;;;;;16.51;78.01;98021.19;130019;1101;22563;-57
2021/05/18 11:59:27;;;;;;;7.53;3.05;;;;;;;16.46;78.12;98024.92;129961;1101;22602;-57
2021/05/18 12:02:00;;;;;;;5.08;2.40;;;;;;;16.44;77.85;98024.48;129994;1101;22685;-57
2021/05/18 12:04:30;;;;;;;3.15;2.00;;;;;;;16.39;77.20;98030.16;129988;1101;22693;-56
2021/05/18 12:06:59;;;;;;;3.53;2.25;;;;;;;16.34;77.45;98033.09;130014;1101;22765;-58
2021/05/18 12:09:32;;;;;;;5.55;2.63;;;;;;;16.31;77.69;98035.69;129625;1104;22568;-57
2021/05/18 12:12:03;;;;;;;7.53;3.85;;;;;;;16.28;78.20;98036.38;130022;1101;22657;-56
2021/05/18 12:14:40;;;;;;;6.05;3.30;;;;;;;16.23;78.16;98040.91;130022;1101;22533;-56
2021/05/18 12:17:11;;;;;;;7.08;2.98;;;;;;;16.18;77.95;98034.78;129941;1101;22644;-56
2021/05/18 12:20:01;;;;;;;5.88;2.55;;;;;;;16.14;77.83;98031.11;129921;1101;22656;-57
2021/05/18 12:22:29;;;;;;;4.68;2.75;;;;;;;16.13;77.98;98030.30;130031;1101;22606;-56
2021/05/18 12:24:58;;;;;;;5.10;2.65;;;;;;;16.11;77.81;98032.56;129764;1101;22625;-56
2021/05/18 12:27:26;;;;;;;4.05;2.50;;;;;;;16.11;77.84;98031.76;129959;1101;22532;-56
2021/05/18 12:29:58;;;;;;;4.03;2.90;;;;;;;16.10;78.27;98025.45;129990;1101;22522;-56
2021/05/18 12:32:27;;;;;;;5.83;3.10;;;;;;;16.10;78.30;98019.97;129925;1101;22564;-56
2021/05/18 12:35:14;;;;;;;6.50;3.40;;;;;;;16.10;78.47;98013.66;129966;1101;23097;-56
2021/05/18 12:38:14;;;;;;;4.90;3.10;;;;;;;16.07;78.53;98020.62;130022;1101;22654;-57
2021/05/18 12:40:45;;;;;;;4.63;3.43;;;;;;;16.05;78.90;98028.38;129938;1101;22619;-57
2021/05/18 12:43:17;;;;;;;6.05;3.08;;;;;;;16.02;79.03;98028.23;129985;1101;22559;-58
2021/05/18 12:45:45;;;;;;;6.88;3.40;;;;;;;15.98;79.04;98028.10;130010;1101;22542;-58
2021/05/18 12:48:14;;;;;;;7.47;3.40;;;;;;;15.97;79.35;98033.92;129972;1101;23157;-58
2021/05/18 12:50:49;;;;;;;6.53;3.43;;;;;;;15.97;80.03;98036.67;130017;1101;22722;-58
2021/05/18 12:53:30;;;;;;;7.80;3.58;;;;;;;15.95;80.08;98034.25;129734;1101;22663;-58
2021/05/18 12:55:59;;;;;;;7.88;3.83;;;;;;;15.94;80.20;98035.38;129990;1101;23386;-58
2021/05/18 12:58:31;;;;;;;8.83;3.68;;;;;;;15.93;80.54;98028.28;129945;1101;22567;-58
2021/05/18 13:01:18;;;;;;;9.80;4.65;;;;;;;15.94;80.74;98021.65;130046;1101;22545;-59
2021/05/18 13:03:47;;;;;;;10.40;5.33;;;;;;;15.94;80.90;98021.65;129959;1101;22604;-58
2021/05/18 13:06:16;;;;;;;7.43;5.20;;;;;;;15.96;81.63;98027.63;129750;1101;24548;-59
2021/05/18 13:08:45;;;;;;;8.95;5.33;;;;;;;15.97;81.98;98017.44;129924;1101;22554;-58
2021/05/18 13:12:11;;;;;;;9.03;4.50;;;;;;;15.96;81.87;98015.83;129997;1101;22641;-58
2021/05/18 13:14:07;;;;;;;6.93;3.43;;;;;;;15.96;81.93;98015.83;129754;1101;22737;-58
2021/05/18 13:16:37;;;;;;;6.53;4.13;;;;;;;15.98;81.61;98016.31;129711;1101;23194;-58
2021/05/18 13:19:11;;;;;;;12.28;5.60;;;;;;;15.99;81.79;98015.17;129978;1101;22639;-59
2021/05/18 13:21:55;;;;;;;8.55;6.98;;;;;;;16.01;81.61;98010.16;129755;1102;22650;-60
2021/05/18 13:27:11;;;;;;;4.45;3.20;;;;;;;16.02;80.74;98004.31;130040;1101;22649;-59
2021/05/18 13:29:40;;;;;;;7.38;3.78;;;;;;;16.02;80.79;97995.27;129989;1101;22635;-59
2021/05/18 13:32:10;;;;;;;7.20;3.55;;;;;;;16.04;80.89;97996.55;130030;1101;23134;-59
2021/05/18 13:34:45;;;;;;;8.58;3.20;;;;;;;16.04;80.72;97990.25;129981;1101;22606;-59
2021/05/18 13:37:13;;;;;;;5.45;3.68;;;;;;;16.04;80.80;97987.50;129925;1101;22580;-59
2021/05/18 13:39:45;;;;;;;14.25;8.90;;;;;;;16.06;80.55;97990.72;129949;1101;22563;-57
2021/05/18 13:42:15;;;;;;;8.80;5.15;;;;;;;16.08;80.78;97994.76;129984;1101;22540;-57
2021/05/18 13:44:43;;;;;;;8.40;4.78;;;;;;;16.12;80.78;98000.41;129289;1102;22534;-57
2021/05/18 13:47:14;;;;;;;10.83;4.18;;;;;;;16.18;80.88;98004.55;130005;1101;22644;-57
2021/05/18 13:49:43;;;;;;;11.90;4.45;;;;;;;16.22;80.75;98009.06;130007;1101;22683;-57
2021/05/18 13:52:22;;;;;;;5.35;3.85;;;;;;;16.25;79.82;98008.41;130052;1101;22527;-56
2021/05/18 13:54:51;;;;;;;6.18;4.00;;;;;;;16.31;79.47;98009.00;129964;1101;23344;-58
2021/05/18 13:57:20;;;;;;;5.93;4.65;;;;;;;16.36;79.87;97999.77;129951;1101;22522;-57
2021/05/18 13:59:50;;;;;;;4.88;4.30;;;;;;;16.43;79.71;97997.31;129934;1101;22596;-56
2021/05/18 14:02:18;;;;;;;7.70;5.45;;;;;;;16.52;79.91;97998.86;130053;1101;22656;-56
2021/05/18 14:04:47;;;;;;;12.48;5.58;;;;;;;16.63;79.90;98001.23;129755;1101;22601;-57
2021/05/18 14:10:25;;;;;;;9.95;5.70;;;;;;;16.83;78.28;97989.45;129606;1104;22547;-57
2021/05/18 14:12:54;;;;;;;7.73;5.38;;;;;;;16.91;78.14;97988.55;129670;1104;22555;-56
2021/05/18 14:15:23;;;;;;;13.85;6.63;;;;;;;17.01;78.22;97977.16;129658;1104;22756;-57
2021/05/18 14:17:51;;;;;;;16.18;7.48;;;;;;;17.09;78.13;97980.95;129608;1104;22586;-57
2021/05/18 14:20:20;;;;;;;7.33;4.75;;;;;;;17.16;77.22;97975.72;129605;1104;22567;-57
2021/05/18 14:22:48;;;;;;;5.87;3.93;;;;;;;17.24;76.34;97970.13;129667;1104;22635;-56
2021/05/18 14:25:17;;;;;;;8.30;6.03;;;;;;;17.31;76.67;97972.33;129573;1104;22549;-57
2021/05/18 14:27:59;;;;;;;8.58;6.80;;;;;;;17.37;76.19;97962.70;129690;1104;22960;-58
2021/05/18 14:30:27;;;;;;;15.80;9.23;;;;;;;17.41;75.74;97968.33;129630;1104;22653;-57
2021/05/18 14:32:57;;;;;;;17.70;13.93;;;;;;;17.40;75.45;97955.70;129578;1104;22615;-57
2021/05/18 14:35:29;;;;;;;15.60;11.28;;;;;;;17.37;75.70;97957.19;129620;1104;22577;-57
2021/05/18 14:38:04;;;;;;;14.20;10.63;;;;;;;17.35;75.91;97953.97;129691;1104;23339;-56
2021/05/18 14:46:19;;;;;;;15.93;9.43;;;;;;;17.16;75.39;97962.77;129643;1105;22583;-58
2021/05/18 14:56:38;;;;;;;13.05;8.68;;;;;;;16.97;76.10;97965.20;129959;1101;22093;-59
2021/05/18 14:59:07;;;;;;;13.63;10.40;;;;;;;16.95;76.10;97962.79;130021;1101;22582;-59
2021/05/18 15:01:35;;;;;;;13.48;10.28;;;;;;;16.94;76.28;97957.63;129954;1101;22617;-59
2021/05/18 15:04:04;;;;;;;14.48;10.48;;;;;;;16.93;76.22;97950.51;129762;1101;22551;-59
2021/05/18 15:06:32;;;;;;;19.23;10.75;;;;;;;16.91;76.26;97950.03;129681;1101;23613;-58
2021/05/18 15:09:01;;;;;;;12.83;10.88;;;;;;;16.91;76.34;97955.54;129998;1101;22614;-59
2021/05/18 15:11:29;;;;;;;19.53;12.65;;;;;;;16.90;76.37;97962.98;129943;1101;22624;-61
2021/05/18 15:13:58;;;;;;;16.90;10.80;;;;;;;16.88;76.56;97967.24;129943;1101;22721;-60
2021/05/18 15:16:27;;;;;;;15.08;9.75;;;;;;;16.81;76.70;97959.52;130003;1101;22511;-60
2021/05/18 15:19:02;;;;;;;13.83;9.08;;;;;;;16.78;76.77;97951.13;129961;1101;22539;-61
2021/05/18 15:21:31;;;;;;;13.27;9.70;;;;;;;16.75;76.44;97954.55;129895;1101;23079;-60
2021/05/18 15:24:00;;;;;;;20.28;10.95;;;;;;;16.74;76.79;97953.73;129954;1101;23038;-60
2021/05/18 15:26:29;;;;;;;16.78;11.95;;;;;;;16.73;77.27;97954.10;130005;1101;23084;-60
2021/05/18 15:28:57;;;;;;;19.45;13.20;;;;;;;16.68;77.46;97959.80;129981;1101;22674;-60
2021/05/18 15:31:27;;;;;;;18.83;13.70;;;;;;;16.63;77.30;97962.73;130003;1101;23292;-60
2021/05/18 15:33:55;;;;;;;16.03;12.13;;;;;;;16.55;77.01;97945.95;129959;1101;22630;-59
2021/05/18 15:36:23;;;;;;;15.13;10.20;;;;;;;16.49;76.99;97957.47;129978;1101;22564;-59
2021/05/18 15:38:53;;;;;;;14.40;9.60;;;;;;;16.44;77.07;97958.50;129925;1101;22569;-59
2021/05/18 15:41:22;;;;;;;16.33;11.28;;;;;;;16.39;76.97;97949.63;129974;1101;23278;-58
2021/05/18 15:43:50;;;;;;;15.38;9.35;;;;;;;16.36;77.33;97956.59;129985;1101;22739;-58
2021/05/18 15:46:19;;;;;;;11.38;8.60;;;;;;;16.33;76.85;97942.71;130019;1101;23217;-59
2021/05/18 15:48:48;;;;;;;13.20;8.70;;;;;;;16.31;76.67;97943.04;129989;1101;22604;-58
2021/05/18 15:51:16;;;;;;;17.00;9.38;;;;;;;16.26;76.97;97941.31;130022;1101;22547;-59
2021/05/18 15:53:45;;;;;;;16.95;8.55;;;;;;;16.22;77.08;97931.31;129950;1101;22545;-59
2021/05/18 15:56:14;;;;;;;14.78;8.30;;;;;;;16.18;76.98;97933.92;130012;1101;22541;-59
2021/05/18 15:58:45;;;;;;;12.45;7.48;;;;;;;16.14;77.00;97923.95;129665;1103;23003;-59
2021/05/18 16:01:14;;;;;;;17.15;7.13;;;;;;;16.13;77.39;97931.38;130006;1101;22524;-59
2021/05/18 16:03:43;;;;;;;15.60;10.55;;;;;;;16.12;77.16;97916.03;129952;1101;22609;-59
2021/05/18 16:06:12;;;;;;;14.70;9.88;;;;;;;16.13;77.36;97914.09;130016;1101;23538;-59
2021/05/18 16:11:11;;;;;;;18.73;11.65;;;;;;;16.13;76.94;97903.09;129994;1101;23307;-59
2021/05/18 16:13:41;;;;;;;25.25;12.60;;;;;;;16.14;76.88;97910.20;130032;1102;22575;-59
2021/05/18 16:16:11;;;;;;;16.93;10.60;;;;;;;16.13;76.79;97920.39;129989;1101;23277;-59
2021/05/18 16:18:42;;;;;;;16.30;10.33;;;;;;;16.12;76.68;97924.27;129987;1101;22611;-59
2021/05/18 16:21:13;;;;;;;14.00;8.33;;;;;;;16.11;76.95;97930.09;129909;1101;22660;-59
2021/05/18 16:23:48;;;;;;;19.13;9.38;;;;;;;16.09;77.14;97924.13;129761;1102;22542;-59
2021/05/18 16:26:18;;;;;;;14.73;7.75;;;;;;;16.08;77.05;97928.02;129979;1101;22675;-59
2021/05/18 16:28:46;;;;;;;12.15;6.95;;;;;;;16.06;76.94;97922.04;130016;1101;22684;-59
2021/05/18 16:31:16;;;;;;;8.65;6.78;;;;;;;16.07;76.98;97916.22;129974;1101;22670;-60
2021/05/18 16:33:46;;;;;;;10.08;7.00;;;;;;;16.05;77.45;97912.99;129956;1101;22535;-59
2021/05/18 16:36:15;;;;;;;14.98;7.00;;;;;;;16.05;77.21;97918.48;129869;1101;23693;-59
2021/05/18 16:38:44;;;;;;;12.35;5.95;;;;;;;16.05;77.25;97912.99;130019;1101;22511;-59
2021/05/18 16:41:38;;;;;;;12.33;5.98;;;;;;;16.06;77.31;97911.86;125463;1101;22830;-58
2021/05/18 16:44:08;;;;;;;9.10;5.78;;;;;;;16.06;77.45;97908.30;130005;1101;22541;-59
2021/05/18 16:46:37;;;;;;;12.28;6.13;;;;;;;16.06;78.01;97908.30;129944;1101;23041;-59
2021/05/18 16:49:06;;;;;;;10.48;6.43;;;;;;;16.05;78.01;97906.69;130007;1101;22795;-63
2021/05/18 16:51:36;;;;;;;13.63;7.70;;;;;;;16.04;78.30;97899.58;129684;1101;23264;-61
2021/05/18 16:54:06;;;;;;;16.00;9.38;;;;;;;16.04;78.23;97883.91;130007;1101;22503;-61
2021/05/18 16:56:35;;;;;;;12.93;9.80;;;;;;;16.03;78.30;97884.23;129893;1101;22813;-60
2021/05/18 16:59:05;;;;;;;14.83;10.60;;;;;;;16.02;78.51;97877.94;129960;1101;23490;-66
2021/05/18 17:01:34;;;;;;;19.33;10.18;;;;;;;16.00;78.55;97879.44;129948;1101;22566;-63
2021/05/18 17:04:13;;;;;;;17.35;9.45;;;;;;;15.99;78.88;97873.13;129985;1101;22586;-62